Terminal Aerodrome Forecast
Issued by NWS Lake Charles, LA

Home | Current Version | Previous Version | Text Only | Print | Product List | Glossary On
Versions: 1 2 3 4 5 6 7 8 9 10 11 12 13 14 15
000
FTUS44 KLCH 292320
TAFAEX
TAF
KAEX 292320Z 3000/3024 19014G21KT P6SM SKC
     FM300200 18009KT P6SM SKC
     FM300900 16005KT 4SM BR BKN025
     FM301400 23005KT P6SM BKN025
     FM301700 24006KT P6SM BKN035
     FM302000 24007KT P6SM SCT035=

USA.gov is the U.S. government's official web portal to all federal, state and local government web resources and services.